MAPA DE AEROPUERTO

INFORMACIÓN METAR y TAF


Deprecated: The each() function is deprecated. This message will be suppressed on further calls in /home/customer/www/clickair-va.com/public_html/VAM/vam/helpers/get_metar.php on line 20
METAR FOR HDAM
ADDS - METARS form results

(0445 UTC 25 May 2022)
Data provider http://aviationweather.gov/metar/data/
 
Forecast for: HDAM (AMBOULI DJIBOUTI, DJ)
Text: TAF HDAM 241700Z 2418/2518 VRB05KT 9000 HZ SKC
Forecast period: 1800 UTC 24 May 2022 to 0000 UTC 25 May 2022
Forecast type: FROM: standard forecast or significant change
Winds: variable direction winds at 6 MPH (5 knots; 2.6 m/s)
Visibility: 6 miles (9 km)
Clouds: clear skies
Weather: HZ  (haze)
Text: BECMG 2500/2506 250005KT 8000 HZ FEW020
Forecast period: 0000 to 0600 UTC 25 May 2022
Forecast type: BECOMING: Conditions expected to become as follows by 0600 UTC 25 May 2022
Winds: from the WSW (250 degrees) at 6 MPH (5 knots; 2.6 m/s)
Visibility: 5 miles (8 km)
Ceiling: at least 12,000 feet AGL
Clouds: few clouds at 2000 feet AGL
Weather: HZ  (haze)
Text: BECMG 2506/2512 08010G15KT 6000 HZ FEW023
Forecast period: 0600 to 1800 UTC 25 May 2022
Forecast type: BECOMING: Conditions expected to become as follows by 1200 UTC 25 May 2022
Winds: from the E (80 degrees) at 12 MPH (10 knots; 5.1 m/s)
gusting to 17 MPH (15 knots; 7.7 m/s)
Visibility: 4 miles (6 km)
Ceiling: at least 12,000 feet AGL
Clouds: few clouds at 2300 feet AGL
Weather: HZ  (haze)